createdAt,value
2023-04-15T00:00:26.121Z,99.26
2023-04-15T00:01:26.105Z,98.98
2023-04-15T00:02:26.345Z,98.97
2023-04-15T00:03:26.332Z,99.54
2023-04-15T00:04:26.257Z,98.93
2023-04-15T00:05:26.149Z,98.22
2023-04-15T00:06:26.173Z,98.88
2023-04-15T00:07:27.089Z,98.30
2023-04-15T00:08:26.180Z,100.20
2023-04-15T00:09:26.193Z,96.21
2023-04-15T00:10:26.220Z,96.30
2023-04-15T00:11:26.192Z,96.25
2023-04-15T00:12:26.243Z,95.46
2023-04-15T00:13:26.216Z,97.91
2023-04-15T00:14:26.211Z,97.05
2023-04-15T00:15:26.228Z,98.16
2023-04-15T00:16:26.277Z,95.99
2023-04-15T00:17:26.328Z,97.50
2023-04-15T00:18:26.240Z,96.65
2023-04-15T00:19:26.262Z,96.80
2023-04-15T00:20:26.307Z,95.97
2023-04-15T00:21:26.290Z,95.54
2023-04-15T00:22:26.343Z,96.42
2023-04-15T00:23:26.316Z,95.72
2023-04-15T00:24:26.358Z,93.54
2023-04-15T00:25:26.381Z,94.12
2023-04-15T00:26:26.334Z,96.44
2023-04-15T00:27:26.362Z,93.81
2023-04-15T00:28:26.395Z,96.48
2023-04-15T00:29:26.427Z,95.36
2023-04-15T00:30:26.413Z,98.05
2023-04-15T00:31:26.466Z,95.05
2023-04-15T00:32:26.479Z,98.87
2023-04-15T00:33:26.473Z,96.50
2023-04-15T00:34:26.452Z,95.14
2023-04-15T00:35:26.503Z,94.25
2023-04-15T00:36:26.486Z,94.68
2023-04-15T00:37:26.496Z,95.97
2023-04-15T00:38:26.481Z,95.92
2023-04-15T00:39:26.527Z,95.52
2023-04-15T00:40:26.614Z,95.10
2023-04-15T00:41:26.595Z,97.07
2023-04-15T00:42:26.553Z,96.23
2023-04-15T00:43:26.652Z,95.41
2023-04-15T00:44:26.589Z,94.64
2023-04-15T00:45:26.597Z,93.90
2023-04-15T00:46:26.640Z,95.19
2023-04-15T00:47:26.670Z,94.50
2023-04-15T00:48:26.649Z,95.77
2023-04-15T00:49:26.654Z,94.69
2023-04-15T00:50:26.660Z,94.07
2023-04-15T00:51:26.711Z,94.58
2023-04-15T00:52:26.717Z,92.76
2023-04-15T00:53:26.750Z,94.50
2023-04-15T00:54:26.707Z,92.81
2023-04-15T00:55:26.745Z,91.92
2023-04-15T00:56:26.755Z,93.61
2023-04-15T00:57:26.752Z,93.25
2023-04-15T00:58:26.766Z,94.64
2023-04-15T00:59:26.774Z,93.07
2023-04-15T01:00:26.876Z,93.88
2023-04-15T01:01:26.851Z,92.66
2023-04-15T01:02:26.924Z,93.60
2023-04-15T01:03:27.020Z,93.11
2023-04-15T01:04:26.935Z,94.27
2023-04-15T01:05:26.865Z,93.15
2023-04-15T01:06:26.863Z,91.28
2023-04-15T01:07:26.847Z,91.40
2023-04-15T01:08:26.876Z,94.00
2023-04-15T01:09:26.959Z,92.16
2023-04-15T01:10:26.905Z,91.82
2023-04-15T01:11:26.893Z,90.69
2023-04-15T01:12:26.935Z,92.90
2023-04-15T01:13:26.949Z,91.64
2023-04-15T01:14:26.962Z,91.58
2023-04-15T01:15:26.989Z,89.20
2023-04-15T01:16:27.003Z,90.66
2023-04-15T01:17:27.030Z,90.35
2023-04-15T01:18:26.987Z,92.33
2023-04-15T01:19:26.985Z,91.61
2023-04-15T01:20:27.012Z,90.83
2023-04-15T01:21:27.034Z,90.63
2023-04-15T01:22:27.037Z,91.61
2023-04-15T01:23:27.051Z,91.35
2023-04-15T01:24:27.076Z,89.41
2023-04-15T01:25:27.092Z,90.67
2023-04-15T01:26:27.080Z,88.79
2023-04-15T01:27:27.166Z,90.18
2023-04-15T01:28:27.104Z,90.55
2023-04-15T01:29:27.104Z,88.66
2023-04-15T01:30:27.179Z,89.85
2023-04-15T01:31:27.247Z,89.16
2023-04-15T01:32:27.348Z,90.89
2023-04-15T01:33:27.198Z,90.45
2023-04-15T01:34:27.263Z,89.79
2023-04-15T01:35:27.260Z,91.33
2023-04-15T01:36:27.268Z,90.68
2023-04-15T01:37:27.306Z,87.30
2023-04-15T01:38:27.322Z,87.70
2023-04-15T01:39:27.344Z,88.41
2023-04-15T01:40:27.374Z,88.37
2023-04-15T01:41:27.391Z,89.07
2023-04-15T01:42:27.435Z,87.51
2023-04-15T01:43:27.437Z,88.60
2023-04-15T01:44:27.482Z,87.54
2023-04-15T01:45:27.514Z,87.35
2023-04-15T01:46:27.563Z,86.34
2023-04-15T01:47:27.583Z,90.19
2023-04-15T01:48:27.568Z,86.39
2023-04-15T01:49:27.607Z,86.22
2023-04-15T01:50:27.642Z,85.89
2023-04-15T01:51:27.631Z,87.74
2023-04-15T01:52:27.652Z,87.00
2023-04-15T01:53:27.684Z,87.27
2023-04-15T01:54:27.712Z,87.12
2023-04-15T01:55:27.736Z,86.65
2023-04-15T01:56:27.729Z,86.15
2023-04-15T01:57:27.788Z,89.79
2023-04-15T01:58:27.809Z,87.42
2023-04-15T01:59:27.837Z,85.58
2023-04-15T02:00:27.834Z,87.16
2023-04-15T02:01:27.988Z,86.63
2023-04-15T02:02:27.928Z,86.37
2023-04-15T02:03:28.029Z,85.61
2023-04-15T02:04:27.916Z,85.39
2023-04-15T02:05:27.957Z,86.16
2023-04-15T02:06:27.994Z,85.57
2023-04-15T02:07:27.971Z,88.07
2023-04-15T02:08:27.991Z,87.49
2023-04-15T02:09:28.058Z,85.78
2023-04-15T02:10:28.042Z,85.73
2023-04-15T02:11:28.101Z,85.67
2023-04-15T02:12:28.097Z,84.70
2023-04-15T02:13:28.134Z,85.40
2023-04-15T02:14:28.196Z,84.67
2023-04-15T02:15:28.214Z,84.07
2023-04-15T02:16:28.265Z,84.34
2023-04-15T02:17:28.258Z,84.57
2023-04-15T02:18:28.286Z,85.02
2023-04-15T02:19:28.275Z,83.68
2023-04-15T02:20:28.314Z,83.77
2023-04-15T02:21:28.339Z,81.20
2023-04-15T02:22:28.363Z,84.74
2023-04-15T02:23:28.397Z,87.30
2023-04-15T02:24:28.408Z,88.04
2023-04-15T02:25:28.447Z,83.03
2023-04-15T02:26:28.461Z,84.57
2023-04-15T02:27:28.482Z,84.74
2023-04-15T02:28:28.471Z,85.18
2023-04-15T02:29:28.536Z,82.52
2023-04-15T02:30:28.545Z,84.39
2023-04-15T02:31:28.623Z,82.99
2023-04-15T02:32:28.591Z,82.14
2023-04-15T02:33:28.610Z,85.76
2023-04-15T02:34:28.615Z,85.14
2023-04-15T02:35:28.664Z,83.14
2023-04-15T02:36:28.669Z,80.79
2023-04-15T02:37:28.713Z,83.93
2023-04-15T02:38:28.728Z,83.30
2023-04-15T02:39:28.734Z,84.77
2023-04-15T02:40:28.761Z,80.80
2023-04-15T02:41:28.797Z,84.36
2023-04-15T02:42:28.831Z,81.20
2023-04-15T02:43:28.817Z,83.75
2023-04-15T02:44:28.882Z,84.89
2023-04-15T02:45:28.878Z,80.56
2023-04-15T02:46:28.977Z,83.38
2023-04-15T02:47:28.939Z,79.54
2023-04-15T02:48:28.938Z,80.83
2023-04-15T02:49:29.003Z,82.73
2023-04-15T02:50:28.989Z,81.14
2023-04-15T02:51:29.056Z,82.39
2023-04-15T02:52:29.049Z,79.95
2023-04-15T02:53:29.072Z,83.13
2023-04-15T02:54:29.122Z,81.91
2023-04-15T02:55:29.134Z,82.30
2023-04-15T02:56:29.150Z,81.07
2023-04-15T02:57:29.196Z,81.43
2023-04-15T02:58:29.169Z,82.07
2023-04-15T02:59:29.224Z,81.98
2023-04-15T03:00:29.481Z,80.71
2023-04-15T03:01:29.266Z,83.03
2023-04-15T03:02:29.375Z,80.70
2023-04-15T03:03:29.368Z,79.86
2023-04-15T03:04:29.316Z,79.62
2023-04-15T03:05:29.315Z,80.19
2023-04-15T03:06:29.366Z,80.60
2023-04-15T03:07:29.386Z,79.77
2023-04-15T03:08:29.399Z,79.64
2023-04-15T03:09:29.393Z,79.73
2023-04-15T03:10:29.465Z,79.30
2023-04-15T03:11:29.430Z,79.70
2023-04-15T03:12:29.458Z,78.54
2023-04-15T03:13:29.481Z,81.23
2023-04-15T03:14:29.490Z,79.41
2023-04-15T03:15:29.549Z,82.39
2023-04-15T03:16:29.565Z,76.27
2023-04-15T03:17:29.607Z,77.22
2023-04-15T03:18:29.582Z,77.78
2023-04-15T03:19:29.629Z,76.82
2023-04-15T03:20:29.670Z,79.31
2023-04-15T03:21:29.682Z,78.80
2023-04-15T03:22:29.723Z,78.41
2023-04-15T03:23:29.756Z,79.38
2023-04-15T03:24:29.788Z,80.02
2023-04-15T03:25:29.786Z,79.24
2023-04-15T03:26:29.820Z,78.43
2023-04-15T03:27:29.828Z,77.90
2023-04-15T03:28:29.864Z,77.02
2023-04-15T03:29:29.890Z,78.58
2023-04-15T03:30:29.937Z,78.94
2023-04-15T03:31:29.952Z,79.30
2023-04-15T03:32:29.983Z,75.21
2023-04-15T03:33:29.982Z,77.88
2023-04-15T03:34:29.995Z,78.87
2023-04-15T03:35:29.998Z,75.55
2023-04-15T03:36:30.086Z,74.37
2023-04-15T03:37:30.085Z,75.72
2023-04-15T03:38:30.105Z,76.00
2023-04-15T03:39:30.116Z,77.60
2023-04-15T03:40:30.141Z,76.05
2023-04-15T03:41:30.187Z,77.56
2023-04-15T03:42:30.213Z,76.51
2023-04-15T03:43:30.223Z,74.32
2023-04-15T03:44:30.258Z,77.11
2023-04-15T03:45:30.295Z,76.36
2023-04-15T03:46:30.404Z,77.19
2023-04-15T03:47:30.384Z,77.20
2023-04-15T03:48:30.344Z,76.26
2023-04-15T03:49:30.372Z,76.49
2023-04-15T03:50:30.433Z,76.05
2023-04-15T03:51:30.456Z,73.24
2023-04-15T03:52:30.510Z,74.34
2023-04-15T03:53:30.524Z,74.25
2023-04-15T03:54:30.544Z,75.18
2023-04-15T03:55:30.570Z,75.07
2023-04-15T03:56:30.585Z,76.29
2023-04-15T03:57:30.616Z,75.51
2023-04-15T03:58:30.662Z,74.65
2023-04-15T03:59:30.668Z,74.42
2023-04-15T04:00:30.692Z,74.68
2023-04-15T04:01:30.780Z,74.41
2023-04-15T04:02:30.816Z,76.40
2023-04-15T04:03:30.877Z,76.50
2023-04-15T04:04:30.991Z,76.04
2023-04-15T04:05:30.836Z,76.69
2023-04-15T04:06:30.870Z,76.90
2023-04-15T04:07:30.929Z,75.44
2023-04-15T04:08:30.940Z,73.03
2023-04-15T04:09:30.952Z,74.14
2023-04-15T04:10:31.093Z,74.00
2023-04-15T04:11:31.022Z,76.14
2023-04-15T04:12:31.033Z,72.98
2023-04-15T04:13:31.105Z,74.13
2023-04-15T04:14:31.087Z,75.81
2023-04-15T04:15:31.180Z,76.54
2023-04-15T04:16:31.186Z,73.20
2023-04-15T04:17:31.202Z,74.35
2023-04-15T04:18:31.225Z,75.09
2023-04-15T04:19:31.268Z,73.73
2023-04-15T04:20:31.291Z,72.06
2023-04-15T04:21:31.310Z,72.51
2023-04-15T04:22:31.366Z,72.87
2023-04-15T04:23:31.386Z,74.12
2023-04-15T04:24:31.391Z,72.39
2023-04-15T04:25:31.440Z,71.44
2023-04-15T04:26:31.479Z,72.93
2023-04-15T04:27:31.505Z,72.64
2023-04-15T04:28:31.538Z,72.40
2023-04-15T04:29:31.569Z,73.08
2023-04-15T04:30:31.574Z,70.29
2023-04-15T04:31:31.622Z,71.58
2023-04-15T04:32:31.633Z,70.57
2023-04-15T04:33:31.662Z,70.24
2023-04-15T04:34:31.678Z,73.26
2023-04-15T04:35:31.704Z,70.69
2023-04-15T04:36:31.703Z,68.84
2023-04-15T04:37:31.740Z,67.06
2023-04-15T04:38:31.770Z,68.44
2023-04-15T04:39:31.802Z,67.44
2023-04-15T04:40:31.819Z,65.68
2023-04-15T04:41:31.859Z,67.51
2023-04-15T04:42:31.870Z,69.75
2023-04-15T04:43:31.934Z,69.33
2023-04-15T04:44:31.924Z,69.60
2023-04-15T04:45:32.010Z,69.34
2023-04-15T04:46:31.997Z,69.47
2023-04-15T04:47:32.028Z,69.25
2023-04-15T04:48:32.054Z,68.38
2023-04-15T04:49:32.085Z,66.73
2023-04-15T04:50:32.094Z,68.48
2023-04-15T04:51:32.113Z,68.08
2023-04-15T04:52:32.175Z,69.05
2023-04-15T04:53:32.208Z,67.26
2023-04-15T04:54:32.205Z,67.08
2023-04-15T04:55:32.273Z,67.26
2023-04-15T04:56:32.277Z,70.18
2023-04-15T04:57:32.329Z,65.50
2023-04-15T04:58:32.344Z,67.77
2023-04-15T04:59:32.348Z,66.55
2023-04-15T05:00:32.362Z,68.49
2023-04-15T05:01:32.464Z,67.24
2023-04-15T05:02:32.570Z,66.25
2023-04-15T05:03:32.496Z,67.17
2023-04-15T05:04:32.476Z,66.87
2023-04-15T05:05:32.505Z,63.81
2023-04-15T05:06:32.540Z,66.94
2023-04-15T05:07:32.565Z,65.61
2023-04-15T05:08:32.565Z,66.74
2023-04-15T05:09:32.588Z,65.03
2023-04-15T05:10:32.623Z,64.15
2023-04-15T05:11:32.670Z,66.82
2023-04-15T05:12:32.666Z,66.26
2023-04-15T05:13:32.700Z,63.00
2023-04-15T05:14:32.724Z,64.93
2023-04-15T05:15:32.754Z,64.52
2023-04-15T05:16:32.823Z,65.95
2023-04-15T05:17:32.833Z,64.08
2023-04-15T05:18:32.844Z,64.00
2023-04-15T05:19:32.855Z,65.21
2023-04-15T05:20:32.865Z,65.41
2023-04-15T05:21:32.902Z,64.30
2023-04-15T05:22:32.923Z,63.69
2023-04-15T05:23:32.965Z,61.66
2023-04-15T05:24:32.965Z,61.58
2023-04-15T05:25:33.004Z,64.84
2023-04-15T05:26:33.015Z,63.64
2023-04-15T05:27:33.046Z,61.69
2023-04-15T05:28:33.113Z,64.34
2023-04-15T05:29:33.115Z,64.91
2023-04-15T05:30:33.156Z,62.15
2023-04-15T05:31:33.174Z,63.63
2023-04-15T05:32:33.252Z,62.98
2023-04-15T05:33:33.221Z,62.73
2023-04-15T05:34:33.220Z,62.61
2023-04-15T05:35:33.276Z,62.78
2023-04-15T05:36:33.293Z,63.74
2023-04-15T05:37:33.325Z,62.22
2023-04-15T05:38:33.353Z,62.94
2023-04-15T05:39:33.370Z,62.14
2023-04-15T05:40:33.399Z,60.13
2023-04-15T05:41:33.420Z,61.34
2023-04-15T05:42:33.453Z,60.60
2023-04-15T05:43:33.432Z,61.80
2023-04-15T05:44:33.449Z,60.00
2023-04-15T05:45:33.487Z,62.68
2023-04-15T05:46:33.587Z,60.73
2023-04-15T05:47:33.628Z,61.16
2023-04-15T05:48:33.562Z,64.13
2023-04-15T05:49:33.582Z,63.07
2023-04-15T05:50:33.587Z,61.72
2023-04-15T05:51:33.623Z,61.31
2023-04-15T05:52:33.627Z,58.77
2023-04-15T05:53:33.696Z,62.50
2023-04-15T05:54:33.666Z,62.70
2023-04-15T05:55:33.723Z,58.29
2023-04-15T05:56:33.730Z,61.01
2023-04-15T05:57:33.780Z,59.27
2023-04-15T05:58:33.784Z,59.58
2023-04-15T05:59:33.785Z,58.05
2023-04-15T06:00:33.821Z,61.31
2023-04-15T06:01:33.863Z,59.00
2023-04-15T06:02:33.950Z,58.58
2023-04-15T06:03:34.010Z,59.49
2023-04-15T06:04:34.068Z,59.69
2023-04-15T06:05:33.943Z,58.79
2023-04-15T06:06:33.940Z,60.78
2023-04-15T06:07:33.984Z,57.19
2023-04-15T06:08:33.992Z,53.68
2023-04-15T06:09:34.010Z,57.27
2023-04-15T06:10:34.011Z,58.64
2023-04-15T06:11:34.062Z,58.39
2023-04-15T06:12:34.087Z,58.49
2023-04-15T06:13:34.088Z,61.58
2023-04-15T06:14:34.097Z,57.48
2023-04-15T06:15:34.142Z,59.02
2023-04-15T06:16:34.193Z,58.93
2023-04-15T06:17:34.209Z,57.77
2023-04-15T06:18:34.223Z,59.40
2023-04-15T06:19:34.226Z,56.65
2023-04-15T06:20:34.259Z,56.19
2023-04-15T06:21:34.258Z,60.35
2023-04-15T06:22:34.291Z,59.44
2023-04-15T06:23:34.314Z,59.99
2023-04-15T06:24:34.339Z,57.16
2023-04-15T06:25:34.330Z,55.96
2023-04-15T06:26:34.357Z,55.18
2023-04-15T06:27:34.414Z,56.55
2023-04-15T06:28:34.420Z,56.56
2023-04-15T06:29:34.426Z,56.59
2023-04-15T06:30:34.479Z,57.73
2023-04-15T06:31:34.539Z,57.73
2023-04-15T06:32:34.587Z,54.56
2023-04-15T06:33:34.528Z,54.91
2023-04-15T06:34:34.569Z,54.82
2023-04-15T06:35:34.576Z,56.67
2023-04-15T06:36:34.603Z,55.47
2023-04-15T06:37:34.643Z,55.09
2023-04-15T06:38:34.669Z,54.50
2023-04-15T06:39:34.679Z,55.48
2023-04-15T06:40:34.698Z,54.73
2023-04-15T06:41:34.736Z,52.51
2023-04-15T06:42:34.767Z,54.28
2023-04-15T06:43:34.772Z,54.00
2023-04-15T06:44:34.794Z,53.77
2023-04-15T06:45:34.852Z,54.59
2023-04-15T06:46:34.880Z,52.26
2023-04-15T06:47:34.892Z,54.82
2023-04-15T06:48:34.905Z,55.42
2023-04-15T06:49:34.921Z,53.71
2023-04-15T06:50:34.923Z,53.28
2023-04-15T06:51:34.953Z,53.21
2023-04-15T06:52:35.008Z,52.42
2023-04-15T06:53:34.989Z,52.30
2023-04-15T06:54:35.040Z,53.79
2023-04-15T06:55:35.057Z,53.67
2023-04-15T06:56:35.075Z,54.87
2023-04-15T06:57:35.290Z,53.46
2023-04-15T06:58:35.126Z,55.90
2023-04-15T06:59:35.161Z,52.03
2023-04-15T07:00:35.182Z,53.61
2023-04-15T07:01:35.245Z,50.24
2023-04-15T07:02:35.316Z,50.55
2023-04-15T07:03:35.225Z,53.96
2023-04-15T07:04:35.304Z,52.33
2023-04-15T07:05:35.267Z,50.70
2023-04-15T07:06:35.280Z,49.77
2023-04-15T07:07:35.289Z,50.36
2023-04-15T07:08:35.313Z,49.81
2023-04-15T07:09:35.344Z,48.55
2023-04-15T07:10:35.357Z,50.92
2023-04-15T07:11:35.364Z,51.62
2023-04-15T07:12:35.358Z,51.22
2023-04-15T07:13:35.365Z,49.27
2023-04-15T07:14:35.412Z,48.04
2023-04-15T07:15:35.445Z,49.81
2023-04-15T07:16:35.482Z,51.17
2023-04-15T07:17:35.506Z,47.81
2023-04-15T07:18:35.480Z,51.11
2023-04-15T07:19:35.481Z,46.34
2023-04-15T07:20:35.529Z,50.80
2023-04-15T07:21:35.540Z,47.60
2023-04-15T07:22:35.627Z,48.08
2023-04-15T07:23:35.556Z,50.09
2023-04-15T07:24:35.581Z,46.55
2023-04-15T07:25:35.620Z,45.91
2023-04-15T07:26:35.612Z,45.15
2023-04-15T07:27:35.628Z,47.31
2023-04-15T07:28:35.630Z,46.60
2023-04-15T07:29:35.669Z,45.90
2023-04-15T07:30:35.704Z,46.40
2023-04-15T07:31:35.728Z,45.67
2023-04-15T07:32:35.715Z,47.78
2023-04-15T07:33:35.714Z,43.58
2023-04-15T07:34:35.746Z,42.49
2023-04-15T07:35:35.765Z,44.50
2023-04-15T07:36:35.778Z,47.89
2023-04-15T07:37:35.876Z,44.76
2023-04-15T07:38:35.831Z,43.83
2023-04-15T07:39:35.828Z,43.32
2023-04-15T07:40:35.830Z,42.15
2023-04-15T07:41:35.834Z,43.89
2023-04-15T07:42:35.867Z,42.89
2023-04-15T07:43:35.886Z,42.42
2023-04-15T07:44:35.952Z,40.75
2023-04-15T07:45:35.948Z,42.48
2023-04-15T07:46:36.089Z,42.88
2023-04-15T07:47:35.995Z,40.14
2023-04-15T07:48:37.406Z,42.23
2023-04-15T07:49:36.021Z,41.94
2023-04-15T07:50:35.994Z,40.89
2023-04-15T07:51:36.053Z,38.93
2023-04-15T07:52:36.005Z,41.25
2023-04-15T07:53:36.031Z,41.77
2023-04-15T07:54:36.068Z,40.69
2023-04-15T07:55:36.096Z,42.48
2023-04-15T07:56:36.096Z,40.09
2023-04-15T07:57:36.121Z,39.15
2023-04-15T07:58:36.125Z,40.87
2023-04-15T07:59:36.128Z,40.63
2023-04-15T08:00:36.144Z,41.03
2023-04-15T08:01:36.157Z,40.97
2023-04-15T08:02:38.082Z,40.70
2023-04-15T08:03:36.628Z,39.58
2023-04-15T08:04:36.689Z,38.89
2023-04-15T08:05:36.421Z,40.37
2023-04-15T08:06:36.465Z,38.00
2023-04-15T08:07:36.472Z,38.30
2023-04-15T08:08:36.464Z,39.10
2023-04-15T08:09:36.493Z,35.75
2023-04-15T08:10:36.496Z,39.17
2023-04-15T08:11:36.549Z,39.68
2023-04-15T08:12:36.539Z,38.50
2023-04-15T08:13:36.522Z,41.42
2023-04-15T08:14:36.518Z,36.06
2023-04-15T08:15:36.574Z,38.51
2023-04-15T08:16:36.621Z,37.65
2023-04-15T08:17:36.684Z,36.13
2023-04-15T08:18:36.582Z,36.29
2023-04-15T08:19:36.605Z,37.95
2023-04-15T08:20:36.605Z,36.49
2023-04-15T08:21:36.612Z,37.25
2023-04-15T08:22:36.627Z,37.31
2023-04-15T08:23:36.628Z,38.71
2023-04-15T08:24:36.649Z,35.61
2023-04-15T08:25:36.672Z,36.20
2023-04-15T08:26:36.666Z,37.88
2023-04-15T08:27:36.696Z,37.14
2023-04-15T08:28:36.707Z,36.82
2023-04-15T08:29:36.709Z,34.70
2023-04-15T08:30:36.726Z,35.69
2023-04-15T08:31:36.794Z,37.13
2023-04-15T08:32:36.750Z,34.70
2023-04-15T08:33:36.800Z,35.24
2023-04-15T08:34:36.804Z,35.05
2023-04-15T08:35:36.799Z,33.83
2023-04-15T08:36:36.910Z,36.00
2023-04-15T08:37:36.783Z,32.67
2023-04-15T08:38:36.800Z,33.37
2023-04-15T08:39:36.810Z,33.44
2023-04-15T08:40:36.808Z,32.39
2023-04-15T08:41:36.818Z,33.40
2023-04-15T08:42:36.839Z,32.63
2023-04-15T08:43:36.858Z,31.71
2023-04-15T08:44:36.919Z,32.16
2023-04-15T08:45:36.861Z,33.75
2023-04-15T08:46:36.865Z,32.41
2023-04-15T08:47:36.951Z,33.23
2023-04-15T08:48:36.895Z,34.32
2023-04-15T08:49:36.890Z,35.15
2023-04-15T08:50:36.873Z,35.49
2023-04-15T08:51:36.898Z,34.13
2023-04-15T08:52:36.902Z,32.70
2023-04-15T08:53:36.914Z,33.08
2023-04-15T08:54:36.901Z,34.25
2023-04-15T08:55:36.900Z,34.81
2023-04-15T08:56:36.929Z,33.53
2023-04-15T08:57:36.905Z,30.28
2023-04-15T08:58:36.936Z,35.46
2023-04-15T08:59:36.940Z,31.25
2023-04-15T09:00:36.923Z,34.12
2023-04-15T09:01:37.025Z,35.68
2023-04-15T09:02:37.056Z,34.00
2023-04-15T09:03:37.108Z,33.34
2023-04-15T09:04:36.986Z,32.31
2023-04-15T09:05:36.979Z,32.41
2023-04-15T09:06:36.982Z,32.23
2023-04-15T09:07:37.006Z,31.39
2023-04-15T09:08:37.005Z,33.27
2023-04-15T09:09:37.005Z,31.62
2023-04-15T09:10:37.055Z,32.19
2023-04-15T09:11:37.065Z,30.11
2023-04-15T09:12:37.038Z,31.40
2023-04-15T09:13:37.051Z,30.91
2023-04-15T09:14:37.097Z,30.41
2023-04-15T09:15:37.026Z,28.51
2023-04-15T09:16:37.090Z,32.36
2023-04-15T09:17:37.144Z,31.13
2023-04-15T09:18:37.062Z,29.98
2023-04-15T09:19:37.083Z,30.02
2023-04-15T09:20:37.080Z,29.18
2023-04-15T09:21:37.090Z,31.55
2023-04-15T09:22:37.112Z,28.08
2023-04-15T09:23:37.093Z,26.03
2023-04-15T09:24:37.124Z,27.20
2023-04-15T09:25:37.152Z,25.71
2023-04-15T09:26:37.204Z,28.58
2023-04-15T09:27:37.249Z,26.75
2023-04-15T09:28:37.281Z,30.61
2023-04-15T09:29:37.404Z,29.01
2023-04-15T09:30:37.372Z,26.07
2023-04-15T09:31:37.336Z,30.54
2023-04-15T09:32:37.382Z,26.40
2023-04-15T09:33:37.376Z,26.73
2023-04-15T09:34:37.424Z,27.55
2023-04-15T09:35:37.430Z,26.89
2023-04-15T09:36:37.470Z,28.66
2023-04-15T09:37:37.539Z,27.47
2023-04-15T09:38:37.621Z,30.21
2023-04-15T09:39:37.658Z,31.52
2023-04-15T09:40:37.722Z,29.92
2023-04-15T09:41:37.777Z,28.89
2023-04-15T09:42:37.870Z,30.66
2023-04-15T09:43:37.893Z,30.75
2023-04-15T09:44:37.971Z,30.09
2023-04-15T09:45:38.013Z,28.43
2023-04-15T09:46:38.142Z,29.95
2023-04-15T09:47:38.149Z,30.60
2023-04-15T09:48:38.171Z,28.50
2023-04-15T09:49:38.310Z,31.52
2023-04-15T09:50:38.316Z,28.68
2023-04-15T09:51:38.398Z,30.83
2023-04-15T09:52:38.402Z,27.37
2023-04-15T09:53:38.457Z,31.41
2023-04-15T09:54:38.622Z,32.38
2023-04-15T09:55:38.615Z,27.99
2023-04-15T09:56:38.664Z,31.34
2023-04-15T09:57:38.719Z,33.90
2023-04-15T09:58:38.784Z,27.32
2023-04-15T09:59:38.844Z,28.94
2023-04-15T10:00:38.889Z,32.24
2023-04-15T10:01:39.017Z,32.89
2023-04-15T10:02:39.102Z,30.11
2023-04-15T10:03:39.169Z,30.56
2023-04-15T10:04:39.098Z,26.87
2023-04-15T10:05:39.153Z,31.64
2023-04-15T10:06:39.220Z,29.16
2023-04-15T10:07:39.289Z,31.71
2023-04-15T10:08:39.319Z,31.96
2023-04-15T10:09:39.406Z,31.84
2023-04-15T10:10:39.413Z,32.15
2023-04-15T10:11:39.490Z,31.27
2023-04-15T10:12:39.547Z,31.30
2023-04-15T10:13:39.599Z,31.16
2023-04-15T10:14:39.630Z,30.20
2023-04-15T10:15:39.715Z,30.87
2023-04-15T10:16:39.776Z,31.24
2023-04-15T10:17:39.824Z,32.13
2023-04-15T10:18:39.844Z,30.18
2023-04-15T10:19:39.942Z,30.69
2023-04-15T10:20:40.037Z,30.24
2023-04-15T10:21:40.148Z,31.76
2023-04-15T10:22:40.130Z,33.17
2023-04-15T10:23:40.160Z,32.17
2023-04-15T10:24:40.231Z,32.70
2023-04-15T10:25:40.289Z,33.19
2023-04-15T10:26:40.365Z,33.32
2023-04-15T10:27:40.441Z,34.55
2023-04-15T10:28:40.516Z,31.79
2023-04-15T10:29:40.562Z,34.68
2023-04-15T10:30:40.597Z,30.74
2023-04-15T10:31:40.724Z,33.83
2023-04-15T10:32:40.727Z,35.32
2023-04-15T10:33:40.777Z,33.17
2023-04-15T10:34:40.823Z,33.68
2023-04-15T10:35:40.889Z,34.46
2023-04-15T10:36:40.965Z,32.12
2023-04-15T10:37:41.007Z,34.77
2023-04-15T10:38:41.078Z,34.59
2023-04-15T10:39:41.169Z,32.37
2023-04-15T10:40:41.227Z,30.73
2023-04-15T10:41:41.265Z,29.84
2023-04-15T10:42:41.342Z,32.79
2023-04-15T10:43:41.429Z,29.28
2023-04-15T10:44:41.470Z,30.50
2023-04-15T10:45:41.519Z,32.49
2023-04-15T10:46:41.637Z,30.75
2023-04-15T10:47:41.717Z,32.76
2023-04-15T10:48:41.750Z,31.40
2023-04-15T10:49:41.834Z,30.29
2023-04-15T10:50:41.885Z,33.74
2023-04-15T10:51:41.970Z,29.58
2023-04-15T10:52:42.037Z,33.34
2023-04-15T10:53:42.069Z,34.38
2023-04-15T10:54:42.163Z,32.36
2023-04-15T10:55:42.218Z,32.93
2023-04-15T10:56:42.270Z,30.03
2023-04-15T10:57:42.389Z,33.25
2023-04-15T10:58:42.460Z,34.19
2023-04-15T10:59:42.503Z,30.83
2023-04-15T11:00:42.551Z,31.04
2023-04-15T11:01:42.660Z,33.79
2023-04-15T11:02:42.844Z,33.09
2023-04-15T11:03:42.953Z,32.73
2023-04-15T11:04:43.206Z,33.27
2023-04-15T11:05:42.936Z,34.10
2023-04-15T11:06:42.940Z,34.78
2023-04-15T11:07:42.991Z,32.08
2023-04-15T11:08:43.056Z,31.79
2023-04-15T11:09:43.141Z,32.67
2023-04-15T11:10:43.202Z,31.88
2023-04-15T11:11:44.376Z,29.99
2023-04-15T11:12:43.343Z,30.95
2023-04-15T11:13:43.376Z,33.59
2023-04-15T11:14:43.524Z,31.73
2023-04-15T11:15:43.524Z,32.16
2023-04-15T11:16:43.624Z,31.26
2023-04-15T11:17:45.313Z,32.31
2023-04-15T11:18:43.676Z,34.72
2023-04-15T11:19:43.674Z,38.69
2023-04-15T11:20:43.695Z,33.34
2023-04-15T11:21:43.672Z,33.80
2023-04-15T11:22:43.672Z,31.66
2023-04-15T11:23:43.672Z,32.95
2023-04-15T11:24:43.670Z,31.94
2023-04-15T11:25:43.869Z,32.33
2023-04-15T11:26:43.685Z,30.80
2023-04-15T11:27:43.669Z,30.16
2023-04-15T11:28:43.702Z,32.00
2023-04-15T11:29:43.693Z,30.58
2023-04-15T11:30:43.717Z,33.03
2023-04-15T11:31:43.710Z,29.59
2023-04-15T11:32:43.708Z,32.26
2023-04-15T11:33:43.680Z,28.91
2023-04-15T11:34:43.652Z,31.48
2023-04-15T11:35:43.659Z,34.95
2023-04-15T11:36:43.656Z,34.51
2023-04-15T11:37:43.635Z,32.68
2023-04-15T11:38:43.637Z,29.39
2023-04-15T11:39:43.630Z,35.01
2023-04-15T11:40:46.188Z,33.83
2023-04-15T11:41:43.615Z,33.96
2023-04-15T11:42:49.716Z,34.09
2023-04-15T11:43:44.601Z,34.31
2023-04-15T11:44:43.635Z,34.36
2023-04-15T11:45:43.625Z,34.23
2023-04-15T11:46:45.121Z,36.29
2023-04-15T11:47:43.580Z,39.14
2023-04-15T11:48:43.596Z,33.03
2023-04-15T11:49:43.579Z,33.92
2023-04-15T11:50:43.568Z,28.44
2023-04-15T11:51:43.560Z,37.20
2023-04-15T11:52:43.560Z,33.90
2023-04-15T11:53:43.565Z,32.54
2023-04-15T11:54:43.606Z,32.84
2023-04-15T11:55:43.668Z,31.26
2023-04-15T11:56:43.719Z,30.27
2023-04-15T11:57:43.813Z,33.36
2023-04-15T11:58:43.866Z,35.93
2023-04-15T11:59:45.692Z,35.68
2023-04-15T12:00:43.993Z,34.85
2023-04-15T12:01:44.186Z,32.25
2023-04-15T12:02:44.365Z,32.25
2023-04-15T12:03:44.368Z,33.15
2023-04-15T12:04:44.421Z,35.14
2023-04-15T12:05:44.379Z,31.41
2023-04-15T12:06:44.425Z,33.58
2023-04-15T12:07:44.504Z,34.29
2023-04-15T12:08:44.546Z,33.63
2023-04-15T12:09:44.609Z,34.26
2023-04-15T12:10:44.683Z,34.70
2023-04-15T12:11:44.792Z,36.88
2023-04-15T12:12:44.822Z,32.28
2023-04-15T12:13:44.904Z,31.62
2023-04-15T12:14:45.016Z,32.68
2023-04-15T12:15:45.123Z,34.07
2023-04-15T12:16:48.583Z,29.94
2023-04-15T12:17:51.707Z,30.21
2023-04-15T12:18:46.149Z,30.35
2023-04-15T12:19:45.143Z,31.22
2023-04-15T12:20:45.139Z,30.83
2023-04-15T12:21:45.110Z,31.60
2023-04-15T12:22:45.165Z,31.65
2023-04-15T12:23:45.140Z,31.33
2023-04-15T12:24:45.151Z,31.27
2023-04-15T12:25:45.149Z,30.24
2023-04-15T12:26:45.150Z,30.53
2023-04-15T12:27:45.205Z,29.57
2023-04-15T12:28:45.331Z,30.91
2023-04-15T12:29:45.380Z,26.16
2023-04-15T12:30:45.376Z,30.95
2023-04-15T12:31:45.509Z,28.08
2023-04-15T12:32:45.554Z,28.95
2023-04-15T12:33:45.562Z,29.09
2023-04-15T12:34:45.625Z,31.87
2023-04-15T12:35:45.706Z,27.20
2023-04-15T12:36:45.900Z,25.00
2023-04-15T12:37:45.831Z,27.23
2023-04-15T12:38:45.942Z,30.89
2023-04-15T12:39:46.010Z,30.91
2023-04-15T12:40:46.087Z,28.52
2023-04-15T12:41:46.157Z,26.34
2023-04-15T12:42:46.228Z,28.16
2023-04-15T12:43:46.292Z,25.00
2023-04-15T12:44:46.380Z,27.92
2023-04-15T12:45:46.456Z,26.58
2023-04-15T12:46:46.608Z,31.95
2023-04-15T12:47:46.641Z,29.92
2023-04-15T12:48:46.683Z,31.52
2023-04-15T12:49:46.792Z,27.22
2023-04-15T12:50:46.829Z,31.49
2023-04-15T12:51:46.874Z,32.84
2023-04-15T12:52:46.956Z,30.56